createdAt,value
2023-03-24T00:01:58.931Z,11.78
2023-03-24T00:04:30.169Z,11.78
2023-03-24T00:07:02.254Z,11.77
2023-03-24T00:09:33.072Z,11.75
2023-03-24T00:12:05.112Z,11.72
2023-03-24T00:14:35.771Z,11.71
2023-03-24T00:17:10.693Z,11.70
2023-03-24T00:19:45.698Z,11.68
2023-03-24T00:22:16.422Z,11.67
2023-03-24T00:24:47.521Z,11.67
2023-03-24T00:27:19.241Z,11.65
2023-03-24T00:29:49.844Z,11.61
2023-03-24T00:32:20.629Z,11.58
2023-03-24T00:34:54.743Z,11.52
2023-03-24T00:37:25.407Z,11.48
2023-03-24T00:39:56.078Z,11.46
2023-03-24T00:42:26.765Z,11.44
2023-03-24T00:44:57.500Z,11.43
2023-03-24T00:47:29.507Z,11.43
2023-03-24T00:50:02.685Z,11.43
2023-03-24T00:52:34.779Z,11.42
2023-03-24T00:55:09.437Z,11.40
2023-03-24T00:57:41.261Z,11.37
2023-03-24T01:00:17.383Z,11.33
2023-03-24T01:02:54.174Z,11.28
2023-03-24T01:05:28.482Z,11.26
2023-03-24T01:08:05.445Z,11.23
2023-03-24T01:10:43.247Z,11.22
2023-03-24T01:13:16.064Z,11.21
2023-03-24T01:15:47.101Z,11.19
2023-03-24T01:18:18.923Z,11.17
2023-03-24T01:20:50.872Z,11.15
2023-03-24T01:23:26.300Z,11.11
2023-03-24T01:25:59.699Z,11.06
2023-03-24T01:28:30.599Z,11.05
2023-03-24T01:31:01.276Z,11.04
2023-03-24T01:33:32.190Z,11.01
2023-03-24T01:36:02.886Z,10.97
2023-03-24T01:38:33.491Z,10.93
2023-03-24T01:41:06.158Z,10.89
2023-03-24T01:43:38.259Z,10.84
2023-03-24T01:46:24.816Z,10.79
2023-03-24T01:49:10.483Z,10.72
2023-03-24T01:51:44.771Z,10.70
2023-03-24T01:54:33.766Z,10.68
2023-03-24T01:57:11.864Z,10.65
2023-03-24T01:59:49.211Z,10.63
2023-03-24T02:02:43.240Z,10.61
2023-03-24T02:05:16.208Z,10.58
2023-03-24T02:08:03.466Z,10.53
2023-03-24T02:10:37.332Z,10.47
2023-03-24T02:13:13.920Z,10.41
2023-03-24T02:16:05.413Z,10.37
2023-03-24T02:27:48.793Z,10.42
2023-03-24T02:31:17.061Z,10.36
2023-03-24T02:34:05.054Z,10.30
2023-03-24T02:37:30.205Z,10.26
2023-03-24T02:41:07.681Z,10.21
2023-03-24T02:45:14.918Z,10.15
2023-03-24T02:48:21.395Z,10.14
2023-03-24T02:55:33.846Z,10.15
2023-03-24T02:58:47.904Z,10.13
2023-03-24T03:01:58.885Z,10.10
2023-03-24T03:05:24.401Z,10.04
2023-03-24T03:08:18.564Z,9.99
2023-03-24T03:11:05.463Z,9.96
2023-03-24T03:14:12.081Z,9.96
2023-03-24T03:17:01.960Z,9.92
2023-03-24T03:19:52.380Z,9.93
2023-03-24T03:22:44.366Z,9.94
2023-03-24T03:26:15.682Z,9.94
2023-03-24T03:29:53.167Z,9.93
2023-03-24T03:32:34.505Z,9.91
2023-03-24T03:35:30.031Z,9.88
2023-03-24T03:38:36.719Z,9.89
2023-03-24T03:45:59.652Z,9.90
2023-03-24T03:49:26.807Z,9.90
2023-03-24T03:52:20.849Z,9.89
2023-03-24T03:55:25.813Z,9.87
2023-03-24T03:58:31.796Z,9.85
2023-03-24T04:01:31.858Z,9.87
2023-03-24T04:05:06.619Z,9.87
2023-03-24T04:08:08.118Z,9.91
2023-03-24T04:15:10.909Z,9.93
2023-03-24T04:18:28.228Z,9.93
2023-03-24T04:21:33.688Z,9.90
2023-03-24T04:24:57.836Z,9.89
2023-03-24T04:31:58.347Z,9.90
2023-03-24T04:34:54.936Z,9.90
2023-03-24T04:37:39.184Z,9.85
2023-03-24T04:41:14.715Z,9.82
2023-03-24T04:44:22.595Z,9.80
2023-03-24T04:47:55.713Z,9.77
2023-03-24T04:51:24.037Z,9.77
2023-03-24T04:59:28.889Z,9.80
2023-03-24T05:03:21.014Z,9.80
2023-03-24T05:06:19.540Z,9.78
2023-03-24T05:09:16.433Z,9.79
2023-03-24T05:11:50.223Z,9.81
2023-03-24T05:17:45.044Z,9.84
2023-03-24T05:21:16.055Z,9.86
2023-03-24T05:28:54.370Z,9.91
2023-03-24T05:31:27.101Z,9.94
2023-03-24T05:34:27.700Z,9.96
2023-03-24T05:38:47.475Z,9.99
2023-03-24T05:42:36.503Z,10.04
2023-03-24T05:46:18.665Z,10.06
2023-03-24T05:49:30.791Z,10.07
2023-03-24T06:01:55.390Z,10.16
2023-03-24T06:04:59.714Z,10.17
2023-03-24T06:08:01.879Z,10.18
2023-03-24T06:10:39.038Z,10.21
2023-03-24T06:13:10.810Z,10.22
2023-03-24T06:23:17.301Z,10.38
2023-03-24T06:27:14.838Z,10.41
2023-03-24T06:30:30.962Z,10.46
2023-03-24T06:33:42.995Z,10.48
2023-03-24T06:37:16.048Z,10.48
2023-03-24T06:40:24.933Z,10.49
2023-03-24T06:43:50.839Z,10.52
2023-03-24T06:46:49.829Z,10.56
2023-03-24T06:54:29.806Z,10.65
2023-03-24T06:58:44.372Z,10.68
2023-03-24T07:01:39.793Z,10.72
2023-03-24T07:04:56.403Z,10.77
2023-03-24T07:11:02.511Z,10.88
2023-03-24T07:17:45.552Z,10.99
2023-03-24T07:20:40.446Z,11.03
2023-03-24T07:24:04.144Z,11.10
2023-03-24T07:28:00.561Z,11.16
2023-03-24T07:30:39.912Z,11.22
2023-03-24T07:33:12.950Z,11.28
2023-03-24T07:35:50.902Z,11.33
2023-03-24T07:38:37.678Z,11.36
2023-03-24T07:41:15.760Z,11.40
2023-03-24T07:43:52.877Z,11.46
2023-03-24T07:46:27.745Z,11.56
2023-03-24T07:49:05.724Z,11.68
2023-03-24T07:51:40.105Z,11.79
2023-03-24T07:54:30.248Z,11.90
2023-03-24T07:57:02.732Z,11.96
2023-03-24T07:59:36.578Z,12.02
2023-03-24T08:02:23.101Z,12.06
2023-03-24T08:05:03.329Z,12.11
2023-03-24T08:07:57.944Z,12.23
2023-03-24T08:11:01.709Z,12.29
2023-03-24T08:13:35.095Z,12.35
2023-03-24T08:16:05.940Z,12.43
2023-03-24T08:18:43.491Z,12.48
2023-03-24T08:21:14.076Z,12.51
2023-03-24T08:23:44.702Z,12.53
2023-03-24T08:26:18.396Z,12.55
2023-03-24T08:28:50.002Z,12.60
2023-03-24T08:31:22.735Z,12.65
2023-03-24T08:33:55.843Z,12.69
2023-03-24T08:36:27.202Z,12.72
2023-03-24T08:38:58.522Z,12.76
2023-03-24T08:41:35.459Z,12.77
2023-03-24T08:44:09.010Z,12.78
2023-03-24T08:46:39.763Z,12.77
2023-03-24T08:49:10.504Z,12.75
2023-03-24T08:51:41.567Z,12.74
2023-03-24T08:54:13.139Z,12.76
2023-03-24T08:56:43.873Z,12.77
2023-03-24T08:59:15.907Z,12.77
2023-03-24T09:01:46.533Z,12.76
2023-03-24T09:04:17.218Z,12.78
2023-03-24T09:06:47.938Z,12.78
2023-03-24T09:09:18.552Z,12.80
2023-03-24T09:11:49.471Z,12.80
2023-03-24T09:14:20.055Z,12.83
2023-03-24T09:16:51.736Z,12.86
2023-03-24T09:19:22.329Z,12.89
2023-03-24T09:21:53.079Z,12.93
2023-03-24T09:24:23.600Z,12.95
2023-03-24T09:26:56.332Z,12.97
2023-03-24T09:29:28.025Z,12.97
2023-03-24T09:31:59.437Z,12.98
2023-03-24T09:34:31.112Z,13.03
2023-03-24T09:37:04.669Z,13.07
2023-03-24T09:39:38.004Z,13.11
2023-03-24T09:42:09.747Z,13.12
2023-03-24T09:44:45.838Z,13.13
2023-03-24T09:47:28.517Z,13.13
2023-03-24T09:50:41.286Z,13.13
2023-03-24T09:53:35.105Z,13.12
2023-03-24T09:56:14.821Z,13.17
2023-03-24T09:58:49.707Z,13.23
2023-03-24T10:01:54.743Z,13.30
2023-03-24T10:04:28.733Z,13.39
2023-03-24T10:07:31.398Z,13.45
2023-03-24T10:10:04.060Z,13.50
2023-03-24T10:12:40.958Z,13.63
2023-03-24T10:15:30.862Z,13.80
2023-03-24T10:18:15.232Z,14.04
2023-03-24T10:20:58.422Z,14.22
2023-03-24T10:23:44.520Z,14.40
2023-03-24T10:26:18.534Z,14.60
2023-03-24T10:28:53.417Z,14.75
2023-03-24T10:31:31.728Z,14.86
2023-03-24T10:34:02.695Z,14.96
2023-03-24T10:36:36.437Z,15.08
2023-03-24T10:41:48.836Z,15.16
2023-03-24T10:44:20.516Z,15.23
2023-03-24T10:46:57.970Z,15.32
2023-03-24T10:49:55.316Z,15.38
2023-03-24T10:53:23.743Z,15.39
2023-03-24T10:57:00.895Z,15.45
2023-03-24T11:00:34.978Z,15.40
2023-03-24T11:04:06.567Z,15.40
2023-03-24T11:07:21.567Z,15.41
2023-03-24T11:10:03.974Z,15.41
2023-03-24T11:12:39.269Z,15.41
2023-03-24T11:15:24.500Z,15.41
2023-03-24T11:17:58.344Z,15.42
2023-03-24T11:20:35.996Z,15.44
2023-03-24T11:23:22.133Z,15.46
2023-03-24T11:26:08.138Z,15.48
2023-03-24T11:28:43.301Z,15.47
2023-03-24T11:31:24.995Z,15.48
2023-03-24T11:34:35.581Z,15.57
2023-03-24T11:37:23.481Z,15.81
2023-03-24T11:40:17.255Z,16.02
2023-03-24T11:43:01.885Z,16.21
2023-03-24T11:45:42.767Z,16.37
2023-03-24T11:48:26.995Z,16.42
2023-03-24T11:51:00.969Z,16.42
2023-03-24T11:53:47.402Z,16.43
2023-03-24T11:56:33.306Z,16.41
2023-03-24T11:59:36.749Z,16.40
2023-03-24T12:02:49.092Z,16.36
2023-03-24T12:05:39.724Z,16.32
2023-03-24T12:15:27.296Z,16.22
2023-03-24T12:18:02.234Z,16.16
2023-03-24T12:20:39.367Z,16.14
2023-03-24T12:23:36.476Z,16.14
2023-03-24T12:26:26.720Z,16.14
2023-03-24T12:29:35.845Z,16.15
2023-03-24T12:32:43.673Z,16.18
2023-03-24T12:35:49.325Z,16.21
2023-03-24T12:38:32.831Z,16.26
2023-03-24T12:41:26.702Z,16.35
2023-03-24T12:44:09.694Z,16.42
2023-03-24T12:46:48.386Z,16.48
2023-03-24T12:50:19.359Z,16.55
2023-03-24T12:53:27.093Z,16.63
2023-03-24T12:56:11.202Z,16.63
2023-03-24T12:59:20.961Z,16.61
2023-03-24T13:01:55.366Z,16.60
2023-03-24T13:09:26.828Z,16.55
2023-03-24T13:12:22.695Z,16.51
2023-03-24T13:15:53.148Z,16.47
2023-03-24T13:19:01.008Z,16.42
2023-03-24T13:21:35.771Z,16.40
2023-03-24T13:24:15.441Z,16.38
2023-03-24T13:27:09.187Z,16.36
2023-03-24T13:30:08.803Z,16.35
2023-03-24T13:32:52.894Z,16.33
2023-03-24T13:36:06.470Z,16.31
2023-03-24T13:40:00.357Z,16.25
2023-03-24T13:44:15.765Z,16.21
2023-03-24T13:47:57.703Z,16.17
2023-03-24T13:54:41.211Z,16.09
2023-03-24T13:57:52.349Z,16.05
2023-03-24T14:00:51.412Z,16.00
2023-03-24T14:04:28.751Z,15.96
2023-03-24T14:07:21.708Z,15.95
2023-03-24T14:10:21.647Z,15.91
2023-03-24T14:13:02.160Z,15.87
2023-03-24T14:15:55.383Z,15.84
2023-03-24T14:19:21.329Z,15.79
2023-03-24T14:22:32.197Z,15.72
2023-03-24T14:25:09.318Z,15.65
2023-03-24T14:28:07.603Z,15.61
2023-03-24T14:30:53.024Z,15.57
2023-03-24T14:35:21.276Z,15.56
2023-03-24T14:38:37.288Z,15.57
2023-03-24T14:41:44.810Z,15.62
2023-03-24T14:44:15.975Z,15.68
2023-03-24T14:46:52.278Z,15.72
2023-03-24T14:49:25.224Z,15.77
2023-03-24T14:52:19.878Z,15.81
2023-03-24T14:54:59.454Z,15.84
2023-03-24T14:59:03.600Z,15.87
2023-03-24T15:01:37.214Z,15.89
2023-03-24T15:04:11.677Z,15.89
2023-03-24T15:07:11.224Z,15.89
2023-03-24T15:10:02.131Z,15.86
2023-03-24T15:12:36.761Z,15.82
2023-03-24T15:15:23.312Z,15.80
2023-03-24T15:18:24.021Z,15.78
2023-03-24T15:20:58.963Z,15.76
2023-03-24T15:24:02.690Z,15.75
2023-03-24T15:26:34.710Z,15.72
2023-03-24T15:29:09.643Z,15.70
2023-03-24T15:31:42.479Z,15.69
2023-03-24T15:34:36.744Z,15.69
2023-03-24T15:37:56.953Z,15.72
2023-03-24T15:40:39.401Z,15.74
2023-03-24T15:44:07.814Z,15.76
2023-03-24T15:47:28.070Z,15.79
2023-03-24T15:50:53.145Z,15.81
2023-03-24T15:53:59.586Z,15.82
2023-03-24T15:57:09.228Z,15.82
2023-03-24T15:59:45.154Z,15.79
2023-03-24T16:03:19.416Z,15.78
2023-03-24T16:06:59.298Z,15.75
2023-03-24T16:10:08.048Z,15.72
2023-03-24T16:13:31.318Z,15.69
2023-03-24T16:16:48.385Z,15.66
2023-03-24T16:20:13.248Z,15.62
2023-03-24T16:23:50.448Z,15.60
2023-03-24T16:26:43.902Z,15.59
2023-03-24T16:29:25.998Z,15.61
2023-03-24T16:31:59.328Z,15.63
2023-03-24T16:34:32.339Z,15.65
2023-03-24T16:37:03.112Z,15.67
2023-03-24T16:39:33.689Z,15.68
2023-03-24T16:42:04.509Z,15.68
2023-03-24T16:44:35.357Z,15.67
2023-03-24T16:47:11.200Z,15.64
2023-03-24T16:50:03.344Z,15.61
2023-03-24T16:52:51.370Z,15.55
2023-03-24T16:56:04.512Z,15.50
2023-03-24T16:59:15.355Z,15.44
2023-03-24T17:02:07.058Z,15.40
2023-03-24T17:04:41.782Z,15.39
2023-03-24T17:07:33.082Z,15.39
2023-03-24T17:10:40.510Z,15.38
2023-03-24T17:13:46.395Z,15.37
2023-03-24T17:16:50.285Z,15.32
2023-03-24T17:19:58.363Z,15.30
2023-03-24T17:22:46.286Z,15.27
2023-03-24T17:26:11.356Z,15.25
2023-03-24T17:30:07.789Z,15.23
2023-03-24T17:34:08.639Z,15.20
2023-03-24T17:37:32.220Z,15.22
2023-03-24T17:40:49.099Z,15.22
2023-03-24T17:43:39.313Z,15.22
2023-03-24T17:46:28.491Z,15.22
2023-03-24T17:50:03.270Z,15.22
2023-03-24T17:53:23.822Z,15.21
2023-03-24T17:56:53.633Z,15.17
2023-03-24T18:00:27.622Z,15.11
2023-03-24T18:03:53.056Z,15.02
2023-03-24T18:07:26.280Z,14.98
2023-03-24T18:10:57.098Z,14.94
2023-03-24T18:14:27.328Z,14.91
2023-03-24T18:17:38.152Z,14.92
2023-03-24T18:20:49.321Z,14.93
2023-03-24T18:23:35.238Z,14.92
2023-03-24T18:26:42.601Z,14.87
2023-03-24T18:29:43.598Z,14.84
2023-03-24T18:32:22.582Z,14.81
2023-03-24T18:34:55.970Z,14.80
2023-03-24T18:37:29.820Z,14.77
2023-03-24T18:40:03.203Z,14.76
2023-03-24T18:42:37.428Z,14.74
2023-03-24T18:45:12.341Z,14.74
2023-03-24T18:47:50.023Z,14.72
2023-03-24T18:50:29.340Z,14.67
2023-03-24T18:53:04.728Z,14.59
2023-03-24T18:55:40.320Z,14.54
2023-03-24T18:58:22.188Z,14.46
2023-03-24T19:01:03.532Z,14.34
2023-03-24T19:03:39.638Z,14.17
2023-03-24T19:06:16.489Z,13.96
2023-03-24T19:08:53.984Z,13.76
2023-03-24T19:11:27.396Z,13.63
2023-03-24T19:14:00.967Z,13.54
2023-03-24T19:16:36.573Z,13.47
2023-03-24T19:19:10.969Z,13.41
2023-03-24T19:21:44.424Z,13.37
2023-03-24T19:24:23.256Z,13.35
2023-03-24T19:27:09.607Z,13.32
2023-03-24T19:29:42.554Z,13.33
2023-03-24T19:32:15.289Z,13.31
2023-03-24T19:34:49.575Z,13.26
2023-03-24T19:37:24.122Z,13.20
2023-03-24T19:40:07.897Z,13.13
2023-03-24T19:42:42.458Z,13.05
2023-03-24T19:45:19.957Z,12.95
2023-03-24T19:47:52.715Z,12.89
2023-03-24T19:50:24.832Z,12.85
2023-03-24T19:52:58.373Z,12.80
2023-03-24T19:55:31.526Z,12.75
2023-03-24T19:58:06.027Z,12.71
2023-03-24T20:00:41.709Z,12.68
2023-03-24T20:03:13.477Z,12.67
2023-03-24T20:05:50.865Z,12.67
2023-03-24T20:08:32.290Z,12.70
2023-03-24T20:11:31.593Z,12.71
2023-03-24T20:14:06.939Z,12.71
2023-03-24T20:16:41.227Z,12.72
2023-03-24T20:19:15.647Z,12.74
2023-03-24T20:21:53.598Z,12.75
2023-03-24T20:24:27.825Z,12.75
2023-03-24T20:27:05.916Z,12.74
2023-03-24T20:29:39.868Z,12.73
2023-03-24T20:32:15.818Z,12.70
2023-03-24T20:35:12.470Z,12.66
2023-03-24T20:38:14.515Z,12.64
2023-03-24T20:41:11.090Z,12.69
2023-03-24T20:44:19.579Z,12.77
2023-03-24T20:47:46.932Z,12.88
2023-03-24T20:51:32.111Z,13.01
2023-03-24T20:54:47.954Z,13.08
2023-03-24T21:01:38.752Z,13.12
2023-03-24T21:04:50.722Z,13.10
2023-03-24T21:08:02.950Z,13.04
2023-03-24T21:11:00.120Z,12.97
2023-03-24T21:14:09.859Z,12.91
2023-03-24T21:21:08.586Z,12.91
2023-03-24T21:24:35.961Z,12.91
2023-03-24T21:27:35.992Z,12.92
2023-03-24T21:30:58.976Z,12.90
2023-03-24T21:34:25.257Z,12.86
2023-03-24T21:37:58.508Z,12.80
2023-03-24T21:41:10.354Z,12.73
2023-03-24T21:44:23.522Z,12.69
2023-03-24T21:47:45.711Z,12.63
2023-03-24T21:51:18.375Z,12.56
2023-03-24T21:54:36.292Z,12.52
2023-03-24T21:58:04.401Z,12.51
2023-03-24T22:01:19.465Z,12.50
2023-03-24T22:04:25.520Z,12.47
2023-03-24T22:07:23.367Z,12.47
2023-03-24T22:10:43.285Z,12.44
2023-03-24T22:14:07.417Z,12.37
2023-03-24T22:21:15.332Z,12.24
2023-03-24T22:24:38.543Z,12.17
2023-03-24T22:27:40.276Z,12.12
2023-03-24T22:30:37.343Z,12.11
2023-03-24T22:33:36.414Z,12.12
2023-03-24T22:36:42.345Z,12.11
2023-03-24T22:39:48.390Z,12.11
2023-03-24T22:43:03.475Z,12.11
2023-03-24T22:46:07.652Z,12.11
2023-03-24T22:49:20.365Z,12.08
2023-03-24T22:52:49.536Z,12.05
2023-03-24T22:55:58.294Z,12.00
2023-03-24T22:59:12.344Z,11.93
2023-03-24T23:02:15.432Z,11.89
2023-03-24T23:05:22.343Z,11.92
2023-03-24T23:08:29.270Z,11.93
2023-03-24T23:11:29.317Z,11.95
2023-03-24T23:14:34.395Z,11.96
2023-03-24T23:17:25.486Z,11.95
2023-03-24T23:20:26.302Z,11.93
2023-03-24T23:23:30.943Z,11.88
2023-03-24T23:26:48.380Z,11.81
2023-03-24T23:29:46.240Z,11.73
2023-03-24T23:32:52.355Z,11.65
2023-03-24T23:35:53.287Z,11.59
2023-03-24T23:39:12.404Z,11.54
2023-03-24T23:42:27.402Z,11.52
2023-03-24T23:45:47.320Z,11.52
2023-03-24T23:49:01.220Z,11.52
2023-03-24T23:52:10.301Z,11.51
2023-03-24T23:55:27.256Z,11.45
2023-03-24T23:58:40.282Z,11.39
